createdAt,value
2023-02-11T00:02:14.778Z,6.20
2023-02-11T00:04:41.641Z,6.20
2023-02-11T00:07:08.407Z,6.20
2023-02-11T00:09:35.288Z,6.30
2023-02-11T00:12:02.013Z,6.30
2023-02-11T00:14:28.918Z,6.20
2023-02-11T00:16:55.768Z,6.20
2023-02-11T00:19:22.586Z,6.30
2023-02-11T00:21:49.346Z,6.30
2023-02-11T00:24:16.128Z,6.30
2023-02-11T00:26:42.956Z,6.30
2023-02-11T00:29:09.851Z,6.30
2023-02-11T00:31:37.279Z,6.30
2023-02-11T00:34:05.570Z,6.30
2023-02-11T00:36:32.507Z,6.30
2023-02-11T00:38:59.635Z,6.30
2023-02-11T00:41:27.922Z,6.30
2023-02-11T00:43:54.966Z,6.30
2023-02-11T00:46:22.258Z,6.30
2023-02-11T00:48:49.313Z,6.30
2023-02-11T00:51:16.249Z,6.40
2023-02-11T00:53:43.241Z,6.40
2023-02-11T00:56:10.154Z,6.40
2023-02-11T00:58:37.157Z,6.40
2023-02-11T01:01:04.823Z,6.40
2023-02-11T01:03:31.953Z,6.30
2023-02-11T01:05:59.148Z,6.30
2023-02-11T01:08:26.099Z,6.40
2023-02-11T01:10:57.056Z,6.40
2023-02-11T01:13:24.286Z,6.40
2023-02-11T01:15:51.479Z,6.40
2023-02-11T01:18:18.747Z,6.40
2023-02-11T01:20:45.566Z,6.40
2023-02-11T01:23:12.333Z,6.40
2023-02-11T01:25:39.147Z,6.40
2023-02-11T01:28:06.165Z,6.50
2023-02-11T01:30:33.039Z,6.40
2023-02-11T01:32:59.831Z,6.40
2023-02-11T01:35:26.654Z,6.50
2023-02-11T01:37:54.582Z,6.50
2023-02-11T01:40:21.560Z,6.50
2023-02-11T01:42:50.893Z,6.50
2023-02-11T01:45:38.132Z,6.50
2023-02-11T01:48:04.914Z,6.50
2023-02-11T01:50:31.944Z,6.60
2023-02-11T01:53:25.063Z,6.60
2023-02-11T01:56:11.270Z,6.50
2023-02-11T01:58:39.245Z,6.50
2023-02-11T02:01:06.959Z,6.50
2023-02-11T02:03:36.287Z,6.50
2023-02-11T02:06:32.500Z,6.50
2023-02-11T02:09:17.083Z,6.50
2023-02-11T02:11:44.264Z,6.50
2023-02-11T02:14:11.077Z,6.50
2023-02-11T02:16:38.102Z,6.50
2023-02-11T02:19:19.030Z,6.60
2023-02-11T02:22:04.587Z,6.60
2023-02-11T02:24:50.184Z,6.60
2023-02-11T02:27:26.359Z,6.60
2023-02-11T02:30:12.001Z,6.60
2023-02-11T02:32:41.899Z,6.60
2023-02-11T02:35:17.781Z,6.60
2023-02-11T02:37:50.695Z,6.60
2023-02-11T02:40:23.716Z,6.60
2023-02-11T02:42:51.112Z,6.60
2023-02-11T02:45:18.516Z,6.70
2023-02-11T02:47:45.317Z,6.70
2023-02-11T02:50:13.629Z,6.70
2023-02-11T02:52:40.363Z,6.70
2023-02-11T02:55:08.632Z,6.70
2023-02-11T02:57:44.559Z,6.70
2023-02-11T03:00:11.274Z,6.70
2023-02-11T03:02:42.520Z,6.80
2023-02-11T03:05:18.782Z,6.70
2023-02-11T03:07:51.378Z,6.70
2023-02-11T03:10:31.729Z,6.70
2023-02-11T03:12:59.034Z,6.70
2023-02-11T03:15:27.099Z,6.70
2023-02-11T03:17:54.985Z,6.80
2023-02-11T03:20:22.998Z,6.70
2023-02-11T03:22:53.133Z,6.70
2023-02-11T03:25:21.121Z,6.80
2023-02-11T03:27:53.118Z,6.80
2023-02-11T03:30:26.227Z,6.80
2023-02-11T03:32:58.167Z,6.80
2023-02-11T03:35:28.745Z,6.80
2023-02-11T03:37:57.627Z,6.80
2023-02-11T03:40:32.017Z,6.80
2023-02-11T03:43:00.539Z,6.80
2023-02-11T03:45:27.877Z,6.80
2023-02-11T03:48:02.819Z,6.90
2023-02-11T03:50:31.519Z,6.90
2023-02-11T03:52:59.386Z,6.90
2023-02-11T03:55:27.514Z,6.90
2023-02-11T03:57:54.356Z,6.90
2023-02-11T04:00:21.179Z,6.90
2023-02-11T04:02:48.034Z,6.90
2023-02-11T04:05:15.624Z,6.90
2023-02-11T04:07:42.420Z,6.90
2023-02-11T04:10:09.404Z,6.90
2023-02-11T04:12:36.195Z,6.90
2023-02-11T04:15:03.043Z,6.90
2023-02-11T04:17:29.802Z,6.90
2023-02-11T04:19:56.589Z,6.90
2023-02-11T04:22:23.487Z,6.90
2023-02-11T04:24:50.236Z,7.00
2023-02-11T04:27:17.164Z,7.00
2023-02-11T04:29:44.005Z,7.00
2023-02-11T04:32:11.539Z,7.00
2023-02-11T04:34:38.549Z,7.00
2023-02-11T04:37:05.657Z,7.00
2023-02-11T04:39:32.826Z,7.10
2023-02-11T04:41:59.701Z,7.00
2023-02-11T04:44:26.524Z,7.10
2023-02-11T04:46:53.433Z,7.10
2023-02-11T04:49:20.304Z,7.10
2023-02-11T04:51:49.386Z,7.10
2023-02-11T04:54:16.524Z,7.10
2023-02-11T04:56:43.344Z,7.20
2023-02-11T04:59:11.464Z,7.10
2023-02-11T05:01:38.284Z,7.10
2023-02-11T05:04:05.282Z,7.20
2023-02-11T05:06:32.098Z,7.20
2023-02-11T05:08:58.889Z,7.20
2023-02-11T05:11:25.850Z,7.20
2023-02-11T05:13:52.739Z,7.10
2023-02-11T05:16:19.631Z,7.20
2023-02-11T05:18:46.524Z,7.20
2023-02-11T05:21:15.365Z,7.20
2023-02-11T05:23:42.825Z,7.20
2023-02-11T05:26:10.021Z,7.20
2023-02-11T05:28:36.996Z,7.20
2023-02-11T05:31:04.435Z,7.30
2023-02-11T05:33:31.567Z,7.30
2023-02-11T05:36:03.303Z,7.30
2023-02-11T05:38:30.271Z,7.30
2023-02-11T05:40:57.319Z,7.20
2023-02-11T05:43:24.159Z,7.20
2023-02-11T05:45:51.411Z,7.30
2023-02-11T05:48:18.479Z,7.30
2023-02-11T05:50:45.500Z,7.30
2023-02-11T05:53:12.599Z,7.30
2023-02-11T05:55:39.541Z,7.30
2023-02-11T05:58:06.594Z,7.30
2023-02-11T06:00:33.640Z,7.30
2023-02-11T06:03:00.600Z,7.30
2023-02-11T06:05:27.418Z,7.30
2023-02-11T06:07:54.212Z,7.30
2023-02-11T06:10:21.035Z,7.30
2023-02-11T06:12:50.837Z,7.30
2023-02-11T06:15:17.609Z,7.30
2023-02-11T06:17:44.464Z,7.30
2023-02-11T06:20:11.560Z,7.30
2023-02-11T06:22:38.408Z,7.40
2023-02-11T06:25:05.450Z,7.30
2023-02-11T06:27:32.441Z,7.40
2023-02-11T06:29:59.429Z,7.40
2023-02-11T06:32:43.510Z,7.40
2023-02-11T06:35:12.277Z,7.40
2023-02-11T06:37:39.598Z,7.40
2023-02-11T06:40:06.843Z,7.40
2023-02-11T06:42:34.588Z,7.40
2023-02-11T06:45:01.428Z,7.40
2023-02-11T06:47:28.232Z,7.40
2023-02-11T06:49:54.942Z,7.50
2023-02-11T06:52:21.851Z,7.50
2023-02-11T06:54:49.790Z,7.50
2023-02-11T06:57:16.849Z,7.50
2023-02-11T06:59:43.708Z,7.50
2023-02-11T07:02:10.691Z,7.50
2023-02-11T07:04:38.153Z,7.50
2023-02-11T07:07:05.060Z,7.50
2023-02-11T07:09:31.899Z,7.60
2023-02-11T07:11:58.697Z,7.60
2023-02-11T07:14:25.615Z,7.60
2023-02-11T07:16:55.159Z,7.60
2023-02-11T07:19:21.950Z,7.50
2023-02-11T07:21:49.100Z,7.50
2023-02-11T07:24:16.026Z,7.60
2023-02-11T07:26:42.849Z,7.60
2023-02-11T07:29:09.627Z,7.60
2023-02-11T07:31:36.528Z,7.70
2023-02-11T07:34:03.527Z,7.60
2023-02-11T07:36:31.886Z,7.70
2023-02-11T07:39:10.299Z,7.70
2023-02-11T07:41:39.422Z,7.70
2023-02-11T07:44:08.503Z,7.70
2023-02-11T07:46:35.922Z,7.70
2023-02-11T07:49:02.991Z,7.70
2023-02-11T07:55:58.933Z,7.70
2023-02-11T07:58:49.261Z,7.70
2023-02-11T08:01:25.220Z,7.70
2023-02-11T08:03:52.646Z,7.70
2023-02-11T08:06:20.420Z,7.70
2023-02-11T08:08:47.512Z,7.70
2023-02-11T08:11:15.834Z,7.70
2023-02-11T08:13:42.889Z,7.70
2023-02-11T08:16:16.838Z,7.70
2023-02-11T08:18:43.752Z,7.70
2023-02-11T08:21:11.027Z,7.70
2023-02-11T08:23:38.922Z,7.70
2023-02-11T08:26:06.703Z,7.70
2023-02-11T08:28:35.724Z,7.70
2023-02-11T08:31:13.510Z,7.70
2023-02-11T08:33:41.062Z,7.70
2023-02-11T08:36:09.125Z,7.80
2023-02-11T08:38:36.021Z,7.80
2023-02-11T08:41:02.905Z,7.80
2023-02-11T08:43:29.704Z,7.80
2023-02-11T08:45:56.487Z,7.80
2023-02-11T08:48:23.396Z,7.90
2023-02-11T08:50:50.217Z,7.90
2023-02-11T08:53:16.945Z,7.90
2023-02-11T08:55:51.045Z,7.90
2023-02-11T08:58:19.249Z,7.90
2023-02-11T09:00:46.625Z,7.90
2023-02-11T09:03:14.513Z,7.90
2023-02-11T09:05:48.665Z,8.00
2023-02-11T09:08:15.935Z,8.00
2023-02-11T09:10:42.802Z,8.00
2023-02-11T09:13:09.942Z,8.00
2023-02-11T09:15:36.872Z,8.10
2023-02-11T09:18:04.233Z,8.00
2023-02-11T09:20:31.220Z,8.00
2023-02-11T09:22:58.794Z,8.00
2023-02-11T09:25:25.741Z,8.00
2023-02-11T09:27:53.868Z,8.00
2023-02-11T09:30:21.259Z,8.00
2023-02-11T09:32:48.647Z,8.00
2023-02-11T09:35:15.634Z,8.00
2023-02-11T09:37:42.411Z,8.00
2023-02-11T09:40:09.954Z,8.00
2023-02-11T09:42:39.735Z,8.00
2023-02-11T09:45:12.763Z,8.10
2023-02-11T09:47:45.571Z,8.10
2023-02-11T09:50:14.132Z,8.10
2023-02-11T09:52:43.991Z,8.10
2023-02-11T09:55:25.805Z,8.20
2023-02-11T09:57:52.597Z,8.20
2023-02-11T10:00:33.375Z,8.20
2023-02-11T10:03:09.386Z,8.20
2023-02-11T10:05:36.140Z,8.20
2023-02-11T10:08:16.772Z,8.20
2023-02-11T10:10:47.032Z,8.30
2023-02-11T10:13:23.473Z,8.30
2023-02-11T10:15:50.450Z,8.30
2023-02-11T10:18:34.008Z,8.30
2023-02-11T10:21:08.327Z,8.30
2023-02-11T10:23:36.982Z,8.30
2023-02-11T10:26:09.485Z,8.30
2023-02-11T10:28:36.976Z,8.30
2023-02-11T10:31:07.010Z,8.40
2023-02-11T10:33:33.938Z,8.40
2023-02-11T10:36:00.866Z,8.40
2023-02-11T10:38:28.125Z,8.40
2023-02-11T10:40:54.952Z,8.40
2023-02-11T10:43:24.527Z,8.40
2023-02-11T10:45:52.011Z,8.40
2023-02-11T10:48:42.070Z,8.40
2023-02-11T10:51:08.972Z,8.40
2023-02-11T10:53:35.770Z,8.40
2023-02-11T10:56:05.944Z,8.40
2023-02-11T10:58:35.890Z,8.40
2023-02-11T11:01:04.949Z,8.40
2023-02-11T11:03:39.088Z,8.40
2023-02-11T11:06:08.236Z,8.40
2023-02-11T11:08:41.178Z,8.40
2023-02-11T11:11:15.628Z,8.50
2023-02-11T11:13:53.900Z,8.50
2023-02-11T11:16:34.003Z,8.50
2023-02-11T11:19:07.044Z,8.40
2023-02-11T11:21:33.861Z,8.40
2023-02-11T11:24:02.361Z,8.40
2023-02-11T11:26:40.305Z,8.50
2023-02-11T11:29:10.589Z,8.40
2023-02-11T11:31:46.162Z,8.50
2023-02-11T11:34:23.878Z,8.50
2023-02-11T11:36:50.843Z,8.50
2023-02-11T11:39:21.567Z,8.60
2023-02-11T11:42:11.462Z,8.50
2023-02-11T11:44:39.848Z,8.50
2023-02-11T11:47:13.315Z,8.60
2023-02-11T11:49:49.624Z,8.60
2023-02-11T11:52:19.415Z,8.60
2023-02-11T11:54:52.197Z,8.60
2023-02-11T11:57:22.056Z,8.70
2023-02-11T11:59:48.880Z,8.70
2023-02-11T12:02:22.087Z,8.70
2023-02-11T12:04:54.985Z,8.60
2023-02-11T12:07:23.976Z,8.70
2023-02-11T12:09:58.617Z,8.70
2023-02-11T12:12:26.729Z,8.70
2023-02-11T12:15:22.476Z,8.70
2023-02-11T12:17:49.318Z,8.70
2023-02-11T12:20:19.103Z,8.70
2023-02-11T12:22:45.927Z,8.70
2023-02-11T12:25:25.392Z,8.70
2023-02-11T12:28:15.943Z,8.70
2023-02-11T12:30:55.162Z,8.80
2023-02-11T12:33:37.559Z,8.80
2023-02-11T12:36:08.989Z,8.80
2023-02-11T12:38:47.828Z,8.80
2023-02-11T12:41:53.546Z,8.70
2023-02-11T12:44:30.474Z,8.70
2023-02-11T12:47:12.928Z,8.80
2023-02-11T12:49:39.691Z,8.80
2023-02-11T12:52:15.595Z,8.80
2023-02-11T12:54:46.005Z,8.80
2023-02-11T12:57:26.744Z,8.80
2023-02-11T12:59:56.715Z,8.80
2023-02-11T13:02:23.513Z,8.80
2023-02-11T13:04:54.052Z,8.80
2023-02-11T13:07:33.248Z,8.80
2023-02-11T13:10:19.162Z,8.80
2023-02-11T13:13:06.128Z,8.80
2023-02-11T13:15:33.059Z,8.80
2023-02-11T13:18:19.247Z,8.80
2023-02-11T13:21:06.397Z,8.80
2023-02-11T13:23:36.243Z,8.90
2023-02-11T13:26:10.640Z,8.80
2023-02-11T13:28:44.611Z,8.80
2023-02-11T13:31:12.863Z,8.80
2023-02-11T13:33:43.001Z,8.90
2023-02-11T13:36:09.847Z,8.90
2023-02-11T13:38:37.400Z,8.90
2023-02-11T13:41:06.084Z,9.00
2023-02-11T13:43:34.134Z,9.00
2023-02-11T13:46:02.188Z,9.00
2023-02-11T13:48:31.732Z,9.00
2023-02-11T13:51:10.132Z,9.00
2023-02-11T13:53:46.291Z,9.00
2023-02-11T13:56:24.260Z,9.00
2023-02-11T13:58:51.445Z,9.10
2023-02-11T14:01:37.362Z,9.00
2023-02-11T14:04:40.149Z,9.00
2023-02-11T14:07:44.577Z,9.10
2023-02-11T14:10:30.186Z,9.00
2023-02-11T14:13:17.931Z,9.00
2023-02-11T14:15:45.977Z,9.00
2023-02-11T14:18:31.724Z,9.00
2023-02-11T14:21:11.908Z,9.00
2023-02-11T14:23:39.213Z,9.00
2023-02-11T14:26:12.086Z,9.00
2023-02-11T14:28:39.727Z,9.10
2023-02-11T14:31:10.142Z,9.10
2023-02-11T14:33:56.039Z,9.10
2023-02-11T14:36:25.850Z,9.10
2023-02-11T14:39:01.206Z,9.10
2023-02-11T14:41:30.062Z,9.10
2023-02-11T14:44:01.538Z,9.10
2023-02-11T14:46:30.228Z,9.10
2023-02-11T14:48:58.793Z,9.10
2023-02-11T14:51:27.002Z,9.00
2023-02-11T14:53:57.830Z,9.00
2023-02-11T14:56:26.471Z,9.00
2023-02-11T14:58:54.527Z,9.00
2023-02-11T15:01:32.496Z,9.10
2023-02-11T15:04:01.297Z,9.10
2023-02-11T15:06:32.854Z,9.10
2023-02-11T15:09:05.776Z,9.10
2023-02-11T15:11:35.180Z,9.20
2023-02-11T15:14:07.860Z,9.20
2023-02-11T15:16:35.043Z,9.10
2023-02-11T15:19:04.440Z,9.10
2023-02-11T15:21:33.764Z,9.10
2023-02-11T15:24:08.375Z,9.10
2023-02-11T15:26:35.135Z,9.10
2023-02-11T15:29:02.121Z,9.10
2023-02-11T15:31:29.813Z,9.00
2023-02-11T15:34:06.683Z,8.90
2023-02-11T15:36:36.336Z,8.90
2023-02-11T15:39:23.378Z,8.90
2023-02-11T15:41:50.192Z,8.90
2023-02-11T15:44:26.743Z,8.90
2023-02-11T15:46:53.638Z,9.00
2023-02-11T15:49:21.447Z,9.00
2023-02-11T15:51:48.318Z,9.00
2023-02-11T15:54:23.771Z,8.90
2023-02-11T15:56:51.627Z,8.90
2023-02-11T15:59:21.026Z,8.90
2023-02-11T16:01:48.536Z,8.90
2023-02-11T16:04:20.643Z,8.80
2023-02-11T16:06:48.110Z,8.80
2023-02-11T16:09:14.910Z,8.80
2023-02-11T16:11:47.872Z,8.70
2023-02-11T16:14:20.986Z,8.70
2023-02-11T16:16:52.708Z,8.70
2023-02-11T16:19:22.909Z,8.70
2023-02-11T16:21:51.213Z,8.70
2023-02-11T16:24:24.605Z,8.70
2023-02-11T16:26:53.239Z,8.60
2023-02-11T16:29:23.888Z,8.60
2023-02-11T16:31:52.252Z,8.60
2023-02-11T16:34:25.797Z,8.60
2023-02-11T16:36:52.790Z,8.60
2023-02-11T16:39:23.192Z,8.60
2023-02-11T16:41:50.749Z,8.60
2023-02-11T16:44:17.776Z,8.60
2023-02-11T16:46:44.772Z,8.70
2023-02-11T16:49:15.596Z,8.70
2023-02-11T16:51:42.818Z,8.70
2023-02-11T16:54:14.371Z,8.70
2023-02-11T16:56:41.154Z,8.70
2023-02-11T16:59:07.996Z,8.60
2023-02-11T17:01:35.149Z,8.60
2023-02-11T17:04:02.168Z,8.60
2023-02-11T17:06:29.152Z,8.60
2023-02-11T17:08:55.971Z,8.60
2023-02-11T17:11:22.716Z,8.60
2023-02-11T17:13:49.623Z,8.60
2023-02-11T17:16:19.372Z,8.60
2023-02-11T17:18:46.712Z,8.60
2023-02-11T17:21:13.932Z,8.60
2023-02-11T17:23:40.843Z,8.60
2023-02-11T17:26:08.252Z,8.60
2023-02-11T17:28:35.197Z,8.60
2023-02-11T17:31:06.381Z,8.60
2023-02-11T17:33:36.034Z,8.60
2023-02-11T17:36:07.601Z,8.60
2023-02-11T17:38:34.616Z,8.50
2023-02-11T17:41:02.345Z,8.50
2023-02-11T17:43:29.456Z,8.60
2023-02-11T17:45:56.229Z,8.60
2023-02-11T17:48:23.300Z,8.60
2023-02-11T17:50:50.087Z,8.70
2023-02-11T17:53:16.838Z,8.70
2023-02-11T17:55:43.633Z,8.70
2023-02-11T17:58:10.370Z,8.70
2023-02-11T18:00:37.274Z,8.70
2023-02-11T18:03:11.652Z,8.60
2023-02-11T18:05:38.655Z,8.60
2023-02-11T18:08:06.330Z,8.60
2023-02-11T18:10:33.616Z,8.60
2023-02-11T18:13:00.936Z,8.60
2023-02-11T18:15:27.807Z,8.60
2023-02-11T18:17:55.439Z,8.60
2023-02-11T18:20:22.200Z,8.60
2023-02-11T18:22:49.072Z,8.60
2023-02-11T18:25:16.432Z,8.50
2023-02-11T18:27:43.386Z,8.50
2023-02-11T18:30:20.273Z,8.50
2023-02-11T18:32:47.057Z,8.50
2023-02-11T18:35:15.184Z,8.50
2023-02-11T18:37:42.572Z,8.50
2023-02-11T18:40:10.329Z,8.50
2023-02-11T18:42:37.421Z,8.50
2023-02-11T18:45:05.412Z,8.50
2023-02-11T18:47:34.283Z,8.50
2023-02-11T18:50:01.094Z,8.50
2023-02-11T18:52:27.981Z,8.50
2023-02-11T18:54:54.821Z,8.50
2023-02-11T18:57:21.573Z,8.40
2023-02-11T18:59:49.113Z,8.40
2023-02-11T19:02:16.414Z,8.40
2023-02-11T19:04:43.376Z,8.40
2023-02-11T19:07:10.305Z,8.40
2023-02-11T19:09:37.139Z,8.40
2023-02-11T19:12:04.712Z,8.40
2023-02-11T19:14:33.367Z,8.40
2023-02-11T19:17:01.198Z,8.40
2023-02-11T19:19:29.426Z,8.40
2023-02-11T19:21:56.956Z,8.40
2023-02-11T19:24:24.117Z,8.40
2023-02-11T19:26:52.290Z,8.40
2023-02-11T19:29:19.072Z,8.40
2023-02-11T19:31:46.026Z,8.40
2023-02-11T19:34:14.185Z,8.40
2023-02-11T19:36:41.114Z,8.50
2023-02-11T19:39:07.915Z,8.50
2023-02-11T19:41:34.805Z,8.50
2023-02-11T19:44:01.834Z,8.50
2023-02-11T19:46:29.927Z,8.60
2023-02-11T19:48:56.833Z,8.60
2023-02-11T19:51:23.591Z,8.60
2023-02-11T19:53:51.237Z,8.60
2023-02-11T19:56:20.467Z,8.60
2023-02-11T19:58:47.762Z,8.60
2023-02-11T20:01:16.492Z,8.60
2023-02-11T20:03:43.302Z,8.60
2023-02-11T20:06:14.346Z,8.60
2023-02-11T20:08:41.153Z,8.60
2023-02-11T20:11:09.115Z,8.60
2023-02-11T20:13:37.642Z,8.60
2023-02-11T20:16:08.946Z,8.50
2023-02-11T20:18:38.287Z,8.60
2023-02-11T20:21:24.739Z,8.60
2023-02-11T20:23:52.112Z,8.60
2023-02-11T20:26:23.663Z,8.60
2023-02-11T20:28:51.070Z,8.60
2023-02-11T20:31:18.133Z,8.60
2023-02-11T20:33:45.618Z,8.60
2023-02-11T20:36:16.931Z,8.60
2023-02-11T20:38:44.150Z,8.50
2023-02-11T20:41:13.914Z,8.60
2023-02-11T20:43:41.584Z,8.50
2023-02-11T20:46:08.709Z,8.50
2023-02-11T20:48:35.540Z,8.60
2023-02-11T20:51:06.466Z,8.60
2023-02-11T20:53:37.244Z,8.60
2023-02-11T20:56:08.905Z,8.60
2023-02-11T20:58:36.095Z,8.60
2023-02-11T21:01:06.917Z,8.60
2023-02-11T21:03:34.893Z,8.60
2023-02-11T21:06:02.023Z,8.60
2023-02-11T21:08:28.812Z,8.50
2023-02-11T21:10:55.836Z,8.60
2023-02-11T21:13:22.555Z,8.60
2023-02-11T21:15:54.542Z,8.60
2023-02-11T21:18:22.407Z,8.60
2023-02-11T21:20:49.459Z,8.60
2023-02-11T21:23:16.249Z,8.60
2023-02-11T21:25:43.121Z,8.50
2023-02-11T21:28:10.030Z,8.50
2023-02-11T21:30:40.569Z,8.60
2023-02-11T21:33:07.704Z,8.60
2023-02-11T21:35:35.309Z,8.50
2023-02-11T21:38:02.310Z,8.50
2023-02-11T21:40:29.718Z,8.50
2023-02-11T21:42:57.086Z,8.60
2023-02-11T21:45:24.681Z,8.60
2023-02-11T21:47:52.083Z,8.60
2023-02-11T21:50:18.970Z,8.60
2023-02-11T21:52:46.110Z,8.60
2023-02-11T21:55:13.075Z,8.60
2023-02-11T21:57:39.908Z,8.60
2023-02-11T22:00:07.683Z,8.60
2023-02-11T22:02:37.212Z,8.60
2023-02-11T22:05:04.184Z,8.60
2023-02-11T22:07:31.350Z,8.60
2023-02-11T22:09:59.317Z,8.60
2023-02-11T22:12:26.088Z,8.60
2023-02-11T22:14:52.810Z,8.60
2023-02-11T22:17:19.786Z,8.50
2023-02-11T22:19:46.659Z,8.50
2023-02-11T22:22:18.087Z,8.50
2023-02-11T22:24:48.001Z,8.40
2023-02-11T22:27:16.898Z,8.40
2023-02-11T22:29:46.185Z,8.40
2023-02-11T22:32:13.007Z,8.40
2023-02-11T22:34:39.985Z,8.40
2023-02-11T22:37:07.564Z,8.30
2023-02-11T22:39:34.506Z,8.30
2023-02-11T22:42:01.506Z,8.30
2023-02-11T22:44:28.333Z,8.30
2023-02-11T22:46:55.551Z,8.30
2023-02-11T22:49:22.439Z,8.20
2023-02-11T22:51:49.227Z,8.20
2023-02-11T22:54:17.259Z,8.20
2023-02-11T22:56:44.417Z,8.20
2023-02-11T22:59:13.280Z,8.20
2023-02-11T23:01:40.140Z,8.20
2023-02-11T23:04:07.775Z,8.20
2023-02-11T23:06:34.851Z,8.20
2023-02-11T23:09:03.389Z,8.20
2023-02-11T23:11:30.981Z,8.20
2023-02-11T23:14:00.148Z,8.20
2023-02-11T23:16:28.564Z,8.20
2023-02-11T23:18:55.394Z,8.20
2023-02-11T23:21:24.615Z,8.20
2023-02-11T23:23:58.783Z,8.20
2023-02-11T23:26:26.015Z,8.10
2023-02-11T23:28:52.902Z,8.10
2023-02-11T23:31:22.652Z,8.10
2023-02-11T23:33:49.745Z,8.10
2023-02-11T23:36:17.362Z,8.10
2023-02-11T23:38:44.550Z,8.10
2023-02-11T23:41:11.575Z,8.10
2023-02-11T23:43:38.485Z,8.10
2023-02-11T23:46:05.935Z,8.10
2023-02-11T23:48:32.903Z,8.10
2023-02-11T23:50:59.696Z,8.00
2023-02-11T23:53:26.632Z,8.00
2023-02-11T23:55:53.801Z,8.00
2023-02-11T23:58:20.800Z,8.00
